Time;durP1;ratioP1;P1;durP2;ratioP2;P2;SDS_P1;SDS_P2;PMS_P1;PMS_P2;Temp;Humidity;BMP_temperature;BMP_pressure;BME280_temperature;BME280_humidity;BME280_pressure;Samples;Min_cycle;Max_cycle;Signal;HPM_P1;HPM_P2
2021/09/07 00:00:06;;;;;;;10.20;7.70;;;15.80;68.30;;;;;;5113791;28;20028;-74
2021/09/07 00:02:32;;;;;;;10.55;8.10;;;15.80;68.30;;;;;;5113550;28;20039;-74
2021/09/07 00:04:57;;;;;;;12.48;8.88;;;15.80;68.20;;;;;;5113670;28;20107;-75
2021/09/07 00:07:24;;;;;;;13.00;9.13;;;15.70;68.80;;;;;;5113392;28;20391;-74
2021/09/07 00:09:50;;;;;;;13.85;9.18;;;15.60;68.90;;;;;;5095220;28;20372;-74
2021/09/07 00:12:16;;;;;;;12.50;9.10;;;15.60;69.40;;;;;;5095359;28;20020;-74
2021/09/07 00:14:41;;;;;;;15.05;9.00;;;15.50;69.90;;;;;;5113494;28;20122;-74
2021/09/07 00:17:07;;;;;;;15.70;9.90;;;15.40;69.90;;;;;;5113491;28;20024;-74
2021/09/07 00:19:33;;;;;;;13.43;9.15;;;15.40;70.40;;;;;;5113485;28;20023;-74
2021/09/07 00:21:59;;;;;;;12.82;9.43;;;15.30;70.50;;;;;;5113566;28;20027;-74
2021/09/07 00:24:25;;;;;;;12.48;9.07;;;15.20;70.90;;;;;;5113570;28;20062;-74
2021/09/07 00:26:51;;;;;;;13.20;9.70;;;15.20;70.80;;;;;;5113420;28;20027;-74
2021/09/07 00:29:17;;;;;;;12.15;9.18;;;15.30;70.60;;;;;;5113386;28;20177;-74
2021/09/07 00:31:42;;;;;;;13.57;8.90;;;15.20;70.50;;;;;;5113785;28;20051;-74
2021/09/07 00:34:08;;;;;;;14.27;8.85;;;15.20;70.70;;;;;;5113310;28;20027;-75
2021/09/07 00:36:33;;;;;;;11.23;8.05;;;15.00;71.30;;;;;;5113380;28;20459;-74
2021/09/07 00:38:59;;;;;;;14.38;9.90;;;14.90;71.90;;;;;;5113333;28;20430;-75
2021/09/07 00:41:25;;;;;;;17.55;9.02;;;14.80;72.60;;;;;;5113332;28;20026;-74
2021/09/07 00:43:50;;;;;;;20.13;9.90;;;14.60;73.40;;;;;;5113352;28;20023;-74
2021/09/07 00:46:16;;;;;;;16.90;10.10;;;14.50;74.00;;;;;;5113278;28;20480;-74
2021/09/07 00:48:41;;;;;;;13.50;9.13;;;14.40;74.10;;;;;;5113617;28;20047;-74
2021/09/07 00:51:07;;;;;;;15.18;9.35;;;14.40;74.10;;;;;;5116876;27;20349;-74
2021/09/07 00:53:34;;;;;;;15.10;9.32;;;14.30;74.50;;;;;;5117320;28;20034;-74
2021/09/07 00:56:01;;;;;;;12.00;8.80;;;14.30;74.50;;;;;;5117159;28;20058;-74
2021/09/07 00:58:30;;;;;;;11.85;8.95;;;14.30;74.20;;;;;;5117053;28;20028;-74
2021/09/07 01:00:56;;;;;;;15.65;8.93;;;14.40;73.80;;;;;;5117437;28;20011;-75
2021/09/07 01:03:22;;;;;;;13.98;8.82;;;14.50;73.50;;;;;;5117002;28;20044;-74
2021/09/07 01:05:47;;;;;;;12.93;9.15;;;14.50;73.50;;;;;;5117020;28;20413;-74
2021/09/07 01:08:14;;;;;;;11.52;8.68;;;14.50;73.10;;;;;;5116998;28;20116;-75
2021/09/07 01:10:40;;;;;;;10.93;8.02;;;14.50;73.10;;;;;;5116969;28;20023;-74
2021/09/07 01:13:06;;;;;;;17.67;8.90;;;14.50;73.40;;;;;;5116893;28;20024;-73
2021/09/07 01:15:31;;;;;;;12.55;9.20;;;14.50;72.80;;;;;;5116860;28;20410;-74
2021/09/07 01:17:57;;;;;;;13.30;9.10;;;14.60;72.50;;;;;;5116789;28;20027;-74
2021/09/07 01:20:22;;;;;;;15.80;8.77;;;14.60;72.30;;;;;;5117006;28;20444;-74
2021/09/07 01:22:48;;;;;;;13.35;8.43;;;14.60;72.40;;;;;;5116769;28;20031;-74
2021/09/07 01:25:16;;;;;;;11.90;9.32;;;14.70;72.80;;;;;;5116803;28;20034;-74
2021/09/07 01:27:42;;;;;;;15.98;9.15;;;14.60;73.00;;;;;;5116464;28;20392;-74
2021/09/07 01:30:08;;;;;;;12.43;8.65;;;14.60;73.00;;;;;;5116760;28;20028;-73
2021/09/07 01:32:34;;;;;;;11.88;8.85;;;14.60;72.90;;;;;;5116511;28;20418;-74
2021/09/07 01:34:59;;;;;;;12.43;8.50;;;14.60;72.80;;;;;;5116515;28;20024;-74
2021/09/07 01:37:26;;;;;;;13.63;8.50;;;14.60;72.90;;;;;;5116462;28;20024;-74
2021/09/07 01:39:51;;;;;;;13.20;7.97;;;14.70;72.80;;;;;;5116610;28;20076;-75
2021/09/07 01:42:17;;;;;;;13.20;8.65;;;14.70;72.80;;;;;;5116594;28;20106;-74
2021/09/07 01:44:44;;;;;;;11.55;7.75;;;14.70;73.60;;;;;;5116460;28;20023;-74
2021/09/07 01:47:10;;;;;;;14.15;9.00;;;14.80;72.50;;;;;;5116443;28;20019;-74
2021/09/07 01:49:37;;;;;;;11.35;8.38;;;14.80;72.20;;;;;;5116438;28;20137;-74
2021/09/07 01:52:13;;;;;;;11.57;8.10;;;14.80;72.10;;;;;;5116301;28;20018;-74
2021/09/07 01:54:44;;;;;;;9.80;7.78;;;14.80;71.90;;;;;;5117228;28;20028;-75
2021/09/07 01:57:10;;;;;;;9.98;7.70;;;14.80;71.70;;;;;;5118160;28;20486;-75
2021/09/07 01:59:36;;;;;;;13.23;9.05;;;14.80;71.60;;;;;;5117237;28;20023;-75
2021/09/07 02:02:02;;;;;;;9.57;7.53;;;14.80;71.60;;;;;;5115387;28;20127;-74
2021/09/07 02:04:28;;;;;;;11.38;8.40;;;14.80;71.50;;;;;;5116666;28;20031;-75
2021/09/07 02:06:54;;;;;;;11.07;7.57;;;14.80;71.50;;;;;;5116554;28;20097;-75
2021/09/07 02:09:20;;;;;;;13.05;7.45;;;14.80;71.30;;;;;;5098107;28;20065;-74
2021/09/07 02:11:46;;;;;;;11.32;7.82;;;14.90;71.40;;;;;;5116353;28;20016;-75
2021/09/07 02:14:11;;;;;;;13.38;8.20;;;14.90;71.20;;;;;;5116379;28;20038;-74
2021/09/07 02:16:37;;;;;;;10.52;8.15;;;14.90;71.20;;;;;;5116518;28;20019;-74
2021/09/07 02:19:03;;;;;;;11.30;8.48;;;14.90;71.10;;;;;;5116171;28;20054;-74
2021/09/07 02:21:29;;;;;;;12.85;8.00;;;14.90;71.00;;;;;;5115835;28;20090;-75
2021/09/07 02:23:55;;;;;;;12.18;8.85;;;14.80;71.00;;;;;;5115741;28;20031;-75
2021/09/07 02:26:20;;;;;;;12.43;7.82;;;14.80;71.20;;;;;;5115535;28;20020;-75
2021/09/07 02:28:46;;;;;;;11.43;8.43;;;14.70;71.40;;;;;;5115299;28;20069;-75
2021/09/07 02:31:12;;;;;;;12.15;8.25;;;14.60;71.80;;;;;;5115364;28;20020;-75
2021/09/07 02:33:38;;;;;;;10.63;8.18;;;14.60;71.80;;;;;;5115143;28;20027;-74
2021/09/07 02:36:03;;;;;;;11.15;7.80;;;14.60;71.60;;;;;;5115306;28;20601;-75
2021/09/07 02:38:29;;;;;;;13.50;8.52;;;14.60;71.70;;;;;;5115213;28;20038;-74
2021/09/07 02:40:57;;;;;;;10.95;7.93;;;14.60;71.70;;;;;;5114972;28;20019;-74
2021/09/07 02:43:24;;;;;;;12.73;8.82;;;14.60;71.80;;;;;;5115176;28;20058;-75
2021/09/07 02:45:51;;;;;;;13.27;9.32;;;14.60;71.80;;;;;;5114987;28;20051;-75
2021/09/07 02:48:16;;;;;;;11.88;7.93;;;14.40;72.10;;;;;;5114935;28;20104;-75
2021/09/07 02:50:42;;;;;;;10.40;8.32;;;14.30;72.40;;;;;;5114984;28;20456;-75
2021/09/07 02:53:07;;;;;;;12.95;8.45;;;14.30;72.80;;;;;;5114811;28;20463;-75
2021/09/07 02:55:33;;;;;;;12.25;8.57;;;14.30;72.90;;;;;;5096663;28;20023;-75
2021/09/07 02:57:59;;;;;;;12.55;8.38;;;14.20;73.20;;;;;;5115588;28;20032;-74
2021/09/07 03:00:24;;;;;;;14.55;8.65;;;14.00;73.80;;;;;;5116047;28;20034;-75
2021/09/07 03:02:50;;;;;;;12.80;8.35;;;14.00;73.90;;;;;;5116221;28;20040;-74
2021/09/07 03:05:15;;;;;;;13.77;9.45;;;13.90;74.40;;;;;;5120958;28;20043;-74
2021/09/07 03:07:41;;;;;;;14.25;8.63;;;13.80;74.80;;;;;;5097757;28;20023;-74
2021/09/07 03:10:07;;;;;;;11.40;8.77;;;13.80;74.90;;;;;;5115767;28;20020;-74
2021/09/07 03:12:33;;;;;;;12.43;8.77;;;13.80;74.90;;;;;;5119036;28;20022;-74
2021/09/07 03:14:58;;;;;;;15.88;9.32;;;13.70;75.30;;;;;;5122475;28;20047;-75
2021/09/07 03:17:24;;;;;;;15.57;9.80;;;13.60;75.60;;;;;;5115032;28;20118;-75
2021/09/07 03:19:49;;;;;;;14.68;9.52;;;13.60;76.10;;;;;;5115955;28;20082;-74
2021/09/07 03:22:15;;;;;;;14.18;9.35;;;13.40;76.40;;;;;;5119333;28;20495;-74
2021/09/07 03:24:40;;;;;;;13.25;9.20;;;13.30;77.00;;;;;;5115184;28;20102;-74
2021/09/07 03:27:06;;;;;;;16.42;9.93;;;13.30;77.10;;;;;;5114739;28;20023;-75
2021/09/07 03:29:32;;;;;;;13.73;9.45;;;13.40;77.10;;;;;;5114475;28;20035;-74
2021/09/07 03:31:57;;;;;;;14.70;9.75;;;13.40;77.10;;;;;;5114165;28;20455;-74
2021/09/07 03:34:23;;;;;;;13.30;8.73;;;13.30;77.10;;;;;;5114141;28;20061;-74
2021/09/07 03:36:48;;;;;;;14.85;9.73;;;13.40;77.00;;;;;;5114023;28;20478;-74
2021/09/07 03:39:15;;;;;;;13.18;8.80;;;13.40;76.90;;;;;;5113961;28;20046;-74
2021/09/07 03:41:40;;;;;;;18.08;10.38;;;13.40;77.00;;;;;;5095627;28;20027;-74
2021/09/07 03:44:06;;;;;;;13.40;9.40;;;13.40;77.00;;;;;;5114136;28;20031;-74
2021/09/07 03:46:31;;;;;;;15.40;8.95;;;13.40;76.80;;;;;;5113847;28;20015;-74
2021/09/07 03:48:57;;;;;;;15.80;8.65;;;13.50;76.70;;;;;;5113665;28;20467;-74
2021/09/07 03:51:22;;;;;;;13.35;8.90;;;13.50;76.70;;;;;;5113892;28;20034;-74
2021/09/07 03:53:48;;;;;;;13.60;9.40;;;13.50;76.60;;;;;;5113659;28;20028;-74
2021/09/07 03:56:16;;;;;;;18.05;9.43;;;13.50;76.60;;;;;;5113796;28;20050;-74
2021/09/07 03:58:42;;;;;;;16.63;10.02;;;13.40;76.70;;;;;;5114012;28;20054;-73
2021/09/07 04:01:09;;;;;;;11.93;9.07;;;13.40;76.80;;;;;;5113606;28;20122;-73
2021/09/07 04:03:34;;;;;;;12.50;8.75;;;13.30;77.20;;;;;;5113476;28;20070;-73
2021/09/07 04:06:00;;;;;;;13.93;9.77;;;13.30;77.50;;;;;;5113555;28;20051;-73
2021/09/07 04:08:25;;;;;;;14.15;9.32;;;13.20;77.50;;;;;;5113415;28;20070;-73
2021/09/07 04:10:51;;;;;;;13.88;9.57;;;13.30;77.60;;;;;;5113370;28;20361;-73
2021/09/07 04:13:17;;;;;;;15.63;9.88;;;13.20;77.70;;;;;;5113355;28;20024;-74
2021/09/07 04:15:42;;;;;;;14.57;9.65;;;13.30;77.80;;;;;;5113072;28;20020;-74
2021/09/07 04:18:08;;;;;;;16.73;10.18;;;13.20;78.00;;;;;;5113366;28;20412;-74
2021/09/07 04:20:34;;;;;;;14.73;10.75;;;13.20;78.00;;;;;;5113229;28;20387;-74
2021/09/07 04:22:59;;;;;;;13.85;9.07;;;13.10;78.20;;;;;;5113048;28;20148;-73
2021/09/07 04:25:25;;;;;;;15.48;9.45;;;13.10;78.10;;;;;;5112960;28;20019;-73
2021/09/07 04:27:52;;;;;;;14.07;9.75;;;13.20;78.00;;;;;;5095161;28;20027;-74
2021/09/07 04:30:18;;;;;;;14.00;8.80;;;13.20;77.80;;;;;;5114172;28;20020;-73
2021/09/07 04:32:43;;;;;;;13.75;9.63;;;13.30;77.70;;;;;;5113255;28;20049;-73
2021/09/07 04:35:09;;;;;;;12.25;8.45;;;13.30;77.50;;;;;;5113208;28;20093;-73
2021/09/07 04:37:35;;;;;;;12.27;8.88;;;13.40;77.30;;;;;;5113291;28;20023;-73
2021/09/07 04:40:00;;;;;;;12.20;8.52;;;13.40;77.10;;;;;;5113143;28;20456;-74
2021/09/07 04:42:26;;;;;;;11.40;8.77;;;13.50;77.10;;;;;;5094868;28;20055;-73
2021/09/07 04:44:51;;;;;;;11.55;8.02;;;13.50;76.80;;;;;;5112693;28;20110;-73
2021/09/07 04:47:17;;;;;;;15.68;9.07;;;13.50;76.70;;;;;;5112894;28;20028;-74
2021/09/07 04:49:42;;;;;;;13.00;9.43;;;13.50;76.70;;;;;;5112756;28;20036;-74
2021/09/07 04:52:08;;;;;;;13.15;8.32;;;13.30;77.20;;;;;;5113072;28;20027;-74
2021/09/07 04:54:33;;;;;;;13.02;8.65;;;13.20;77.70;;;;;;5113045;28;20479;-74
2021/09/07 04:57:00;;;;;;;18.52;10.10;;;13.20;77.90;;;;;;5112878;28;20445;-73
2021/09/07 04:59:26;;;;;;;14.02;8.52;;;13.20;78.30;;;;;;5112923;28;20150;-73
2021/09/07 05:01:51;;;;;;;15.98;9.60;;;13.20;78.00;;;;;;5112633;28;20062;-74
2021/09/07 05:04:17;;;;;;;14.18;9.48;;;13.30;78.10;;;;;;5112991;28;20379;-74
2021/09/07 05:06:42;;;;;;;13.73;9.35;;;13.10;78.30;;;;;;5112830;28;20150;-74
2021/09/07 05:09:08;;;;;;;13.30;9.77;;;13.10;78.50;;;;;;5112942;28;20039;-73
2021/09/07 05:11:34;;;;;;;17.40;9.77;;;13.00;78.90;;;;;;5112735;28;20429;-74
2021/09/07 05:13:59;;;;;;;16.27;9.32;;;13.00;79.10;;;;;;5094648;28;20023;-74
2021/09/07 05:16:25;;;;;;;15.57;9.32;;;13.00;79.10;;;;;;5112861;28;20103;-73
2021/09/07 05:18:51;;;;;;;13.73;9.10;;;13.10;79.00;;;;;;5112833;28;20103;-73
2021/09/07 05:21:16;;;;;;;18.90;10.43;;;13.20;78.80;;;;;;5112708;28;20059;-73
2021/09/07 05:23:42;;;;;;;15.90;9.90;;;13.10;79.10;;;;;;5112651;28;20035;-74
2021/09/07 05:26:08;;;;;;;19.30;9.95;;;13.10;79.30;;;;;;5112717;28;20024;-74
2021/09/07 05:28:33;;;;;;;14.20;9.35;;;13.10;79.20;;;;;;5112593;28;20031;-74
2021/09/07 05:30:59;;;;;;;14.05;9.90;;;13.00;79.50;;;;;;5112599;28;20114;-74
2021/09/07 05:33:25;;;;;;;18.23;10.95;;;13.10;80.50;;;;;;5112598;28;20030;-74
2021/09/07 05:35:51;;;;;;;15.60;10.32;;;13.10;79.70;;;;;;5114918;28;20113;-73
2021/09/07 05:38:17;;;;;;;17.75;10.70;;;13.10;79.70;;;;;;5116064;28;20546;-74
2021/09/07 05:40:43;;;;;;;19.52;10.13;;;13.10;80.00;;;;;;5116128;28;20062;-74
2021/09/07 05:43:08;;;;;;;19.48;10.68;;;13.10;80.30;;;;;;5116172;28;20483;-73
2021/09/07 05:45:34;;;;;;;15.35;9.95;;;13.10;80.30;;;;;;5116933;28;20099;-74
2021/09/07 05:47:59;;;;;;;16.55;10.63;;;13.20;79.70;;;;;;5097650;28;20028;-73
2021/09/07 05:50:25;;;;;;;13.25;9.95;;;13.20;79.40;;;;;;5118181;28;20023;-74
2021/09/07 05:52:51;;;;;;;13.70;9.23;;;13.20;79.40;;;;;;5115993;28;20049;-73
2021/09/07 05:55:16;;;;;;;17.58;10.85;;;13.40;79.20;;;;;;5116353;28;20032;-73
2021/09/07 05:57:42;;;;;;;15.18;9.93;;;13.60;78.30;;;;;;5115826;28;20012;-74
2021/09/07 06:00:10;;;;;;;18.52;10.32;;;13.70;77.80;;;;;;5115712;28;20467;-73
2021/09/07 06:02:36;;;;;;;11.68;9.27;;;13.80;77.20;;;;;;5115481;28;20040;-74
2021/09/07 06:05:03;;;;;;;14.27;9.50;;;13.90;77.00;;;;;;5116052;28;20024;-73
2021/09/07 06:07:28;;;;;;;14.38;10.38;;;14.10;76.70;;;;;;5116227;28;20035;-74
2021/09/07 06:09:54;;;;;;;12.10;8.95;;;14.20;76.10;;;;;;5115710;28;20036;-74
2021/09/07 06:12:19;;;;;;;14.68;8.95;;;14.30;75.40;;;;;;5115707;28;20053;-74
2021/09/07 06:14:45;;;;;;;14.40;10.07;;;14.50;75.00;;;;;;5115359;28;20058;-73
2021/09/07 06:17:10;;;;;;;16.73;11.10;;;14.60;74.50;;;;;;5096924;28;20460;-73
2021/09/07 06:19:36;;;;;;;19.48;11.40;;;14.70;73.90;;;;;;5115278;28;20559;-74
2021/09/07 06:22:02;;;;;;;18.55;11.18;;;14.50;73.40;;;;;;5115248;28;20062;-75
2021/09/07 06:24:28;;;;;;;17.30;10.40;;;14.50;73.60;;;;;;5115351;28;20016;-75
2021/09/07 06:26:54;;;;;;;13.43;9.43;;;14.50;73.80;;;;;;5115203;28;20027;-75
2021/09/07 06:29:19;;;;;;;14.98;9.85;;;14.60;73.70;;;;;;5115124;28;20035;-73
2021/09/07 06:31:45;;;;;;;16.98;10.27;;;14.70;73.60;;;;;;5114931;28;20020;-74
2021/09/07 06:34:11;;;;;;;16.25;10.20;;;14.80;73.10;;;;;;5096873;28;20031;-74
2021/09/07 06:36:36;;;;;;;14.80;9.32;;;14.90;73.00;;;;;;5114946;28;20031;-73
2021/09/07 06:39:03;;;;;;;13.65;9.65;;;15.00;72.70;;;;;;5115057;28;20089;-73
2021/09/07 06:41:28;;;;;;;14.27;9.40;;;15.10;72.70;;;;;;5114221;28;20034;-73
2021/09/07 06:43:54;;;;;;;16.02;9.80;;;15.20;72.30;;;;;;5114124;28;20106;-74
2021/09/07 06:46:20;;;;;;;16.60;9.85;;;15.30;72.10;;;;;;5113848;28;20487;-74
2021/09/07 06:48:45;;;;;;;16.02;9.70;;;15.40;71.70;;;;;;5114501;28;20038;-74
2021/09/07 06:51:11;;;;;;;15.85;10.32;;;15.60;71.50;;;;;;5114643;28;20028;-73
2021/09/07 06:53:36;;;;;;;19.75;11.02;;;15.70;71.30;;;;;;5114611;28;20042;-74
2021/09/07 06:56:02;;;;;;;13.88;9.25;;;15.80;70.80;;;;;;5114523;28;20096;-74
2021/09/07 06:58:28;;;;;;;17.70;10.45;;;15.90;70.80;;;;;;5114656;28;20019;-74
2021/09/07 07:00:53;;;;;;;19.02;11.25;;;16.00;70.40;;;;;;5114160;28;20020;-73
2021/09/07 07:03:20;;;;;;;13.88;10.43;;;16.00;70.10;;;;;;5113964;28;20060;-74
2021/09/07 07:05:45;;;;;;;18.98;11.05;;;16.10;70.10;;;;;;5114167;28;20103;-72
2021/09/07 07:08:11;;;;;;;15.55;11.02;;;16.10;70.30;;;;;;5114067;28;20096;-73
2021/09/07 07:10:37;;;;;;;18.70;11.05;;;16.20;70.40;;;;;;5114395;28;20032;-74
2021/09/07 07:13:03;;;;;;;18.75;11.23;;;16.20;70.20;;;;;;5114208;28;20563;-74
2021/09/07 07:15:29;;;;;;;13.98;8.60;;;16.10;70.10;;;;;;5114187;28;20041;-75
2021/09/07 07:17:55;;;;;;;13.30;9.65;;;16.20;71.60;;;;;;5114154;28;20035;-74
2021/09/07 07:20:21;;;;;;;18.17;10.45;;;16.30;70.40;;;;;;5114049;28;20102;-74
2021/09/07 07:22:46;;;;;;;18.35;9.98;;;16.50;69.80;;;;;;5113977;28;20574;-74
2021/09/07 07:25:12;;;;;;;17.33;10.52;;;16.50;69.50;;;;;;5113880;28;20032;-74
2021/09/07 07:27:41;;;;;;;14.20;9.55;;;16.70;69.80;;;;;;5113601;28;20024;-74
2021/09/07 07:30:08;;;;;;;17.08;10.57;;;17.00;69.80;;;;;;5113489;28;20394;-75
2021/09/07 07:32:33;;;;;;;15.52;9.35;;;17.30;68.90;;;;;;5113685;28;20016;-75
2021/09/07 07:34:59;;;;;;;12.77;8.27;;;17.50;68.20;;;;;;5095235;28;20038;-75
2021/09/07 07:37:24;;;;;;;12.07;7.85;;;17.80;67.30;;;;;;5113723;28;20203;-77
2021/09/07 07:39:50;;;;;;;27.85;10.20;;;18.00;66.50;;;;;;5113605;28;20045;-77
2021/09/07 07:42:16;;;;;;;14.43;9.15;;;18.30;68.70;;;;;;5113532;28;20027;-74
2021/09/07 07:44:41;;;;;;;11.93;9.02;;;18.60;68.00;;;;;;5113517;28;20377;-74
2021/09/07 07:47:07;;;;;;;12.57;8.90;;;18.80;66.80;;;;;;5113159;28;20494;-77
2021/09/07 07:49:33;;;;;;;12.48;8.27;;;19.00;65.60;;;;;;5113159;28;20104;-79
2021/09/07 07:51:58;;;;;;;12.38;7.95;;;19.20;64.00;;;;;;5113218;28;20484;-79
2021/09/07 07:54:24;;;;;;;15.07;8.90;;;19.50;63.60;;;;;;5113296;28;20027;-79
2021/09/07 07:56:49;;;;;;;16.92;8.98;;;19.70;63.10;;;;;;5113103;28;20020;-78
2021/09/07 07:59:15;;;;;;;14.70;8.95;;;19.90;62.30;;;;;;5112453;28;20027;-79
2021/09/07 08:01:41;;;;;;;11.63;8.15;;;20.20;61.60;;;;;;5112695;28;20027;-74
2021/09/07 08:04:06;;;;;;;12.20;7.95;;;20.40;60.70;;;;;;5113251;28;20097;-73
2021/09/07 08:06:34;;;;;;;13.48;8.38;;;20.60;59.70;;;;;;5113343;28;20031;-77
2021/09/07 08:08:59;;;;;;;14.50;8.88;;;20.70;59.00;;;;;;5094804;28;20028;-73
2021/09/07 08:11:25;;;;;;;13.80;8.82;;;20.90;58.80;;;;;;5113325;28;20027;-72
2021/09/07 08:13:51;;;;;;;16.63;10.35;;;21.10;58.80;;;;;;5113236;28;20039;-73
2021/09/07 08:16:19;;;;;;;13.15;8.80;;;21.10;58.20;;;;;;5113341;28;20027;-73
2021/09/07 08:18:44;;;;;;;13.43;8.32;;;21.20;58.10;;;;;;5113028;28;20114;-75
2021/09/07 08:21:10;;;;;;;10.98;7.50;;;21.40;58.60;;;;;;5113149;28;20094;-73
2021/09/07 08:23:35;;;;;;;10.27;7.75;;;21.60;58.00;;;;;;5113434;28;20126;-73
2021/09/07 08:26:01;;;;;;;10.65;7.68;;;21.70;57.40;;;;;;5113108;28;20019;-72
2021/09/07 08:28:26;;;;;;;11.18;8.35;;;21.90;56.70;;;;;;5112962;28;20038;-73
2021/09/07 08:30:52;;;;;;;14.02;8.15;;;21.90;55.30;;;;;;5113087;28;20024;-72
2021/09/07 08:33:18;;;;;;;9.95;8.02;;;21.80;55.00;;;;;;5094786;28;20019;-73
2021/09/07 08:35:44;;;;;;;11.68;7.97;;;22.00;55.60;;;;;;5112805;28;20050;-72
2021/09/07 08:38:10;;;;;;;12.63;8.93;;;22.00;54.40;;;;;;5113124;28;20024;-73
2021/09/07 08:40:36;;;;;;;10.70;8.13;;;21.90;55.20;;;;;;5113228;28;20027;-73
2021/09/07 08:43:06;;;;;;;12.45;8.50;;;21.70;55.60;;;;;;5113068;28;20490;-73
2021/09/07 08:45:32;;;;;;;10.85;7.78;;;21.70;53.70;;;;;;5094630;28;20486;-74
2021/09/07 08:48:01;;;;;;;8.80;6.85;;;21.80;56.20;;;;;;5112770;28;20027;-73
2021/09/07 08:50:27;;;;;;;13.70;8.48;;;22.00;55.80;;;;;;5112673;28;20440;-73
2021/09/07 08:52:58;;;;;;;12.00;7.82;;;22.20;55.40;;;;;;5112612;28;20116;-72
2021/09/07 08:55:28;;;;;;;14.68;8.25;;;22.20;55.40;;;;;;5112832;28;20023;-73
2021/09/07 08:57:54;;;;;;;26.55;9.60;;;22.20;54.50;;;;;;5112736;28;20027;-73
2021/09/07 09:00:28;;;;;;;13.32;7.95;;;22.10;55.20;;;;;;5112691;28;20031;-72
2021/09/07 09:02:55;;;;;;;20.92;9.90;;;22.00;55.00;;;;;;5112458;28;20040;-73
2021/09/07 09:05:29;;;;;;;13.65;8.35;;;21.90;53.50;;;;;;5112418;28;20034;-77
2021/09/07 09:07:56;;;;;;;31.52;10.90;;;22.10;54.50;;;;;;5112642;28;20019;-73
2021/09/07 09:10:24;;;;;;;27.55;10.10;;;22.40;54.40;;;;;;5114462;28;20032;-73
2021/09/07 09:13:02;;;;;;;12.20;6.47;;;22.60;51.40;;;;;;5117359;28;20119;-74
2021/09/07 09:15:28;;;;;;;15.63;6.47;;;22.80;41.60;;;;;;5117542;28;20057;-72
2021/09/07 09:18:09;;;;;;;9.15;6.07;;;22.90;39.30;;;;;;5117974;28;20024;-73
2021/09/07 09:20:36;;;;;;;47.15;12.45;;;23.00;36.70;;;;;;5117214;28;20027;-73
2021/09/07 09:23:03;;;;;;;9.05;6.00;;;23.10;36.90;;;;;;5117031;28;20371;-73
2021/09/07 09:25:42;;;;;;;7.03;5.03;;;23.10;35.50;;;;;;5116433;28;20015;-73
2021/09/07 09:28:14;;;;;;;10.48;6.38;;;23.20;34.80;;;;;;5116125;28;20027;-72
2021/09/07 09:30:48;;;;;;;7.68;4.97;;;23.20;34.40;;;;;;5116192;28;20020;-72
2021/09/07 09:33:20;;;;;;;8.77;5.80;;;23.20;33.50;;;;;;5116292;28;20375;-72
2021/09/07 09:36:01;;;;;;;7.25;5.72;;;23.30;34.50;;;;;;5116241;28;20023;-72
2021/09/07 09:38:34;;;;;;;9.32;6.10;;;23.50;33.30;;;;;;5116071;28;20120;-71
2021/09/07 09:41:05;;;;;;;7.50;5.30;;;23.50;33.70;;;;;;5115996;28;20028;-74
2021/09/07 09:43:40;;;;;;;7.75;5.50;;;23.60;34.30;;;;;;5116185;28;20442;-71
2021/09/07 09:46:26;;;;;;;9.13;5.43;;;23.60;33.20;;;;;;5116179;28;20085;-72
2021/09/07 09:49:11;;;;;;;6.78;4.97;;;23.70;33.70;;;;;;5115880;28;20027;-71
2021/09/07 09:51:37;;;;;;;7.23;5.80;;;23.80;33.30;;;;;;5115658;28;20360;-74
2021/09/07 09:54:03;;;;;;;7.97;5.70;;;23.90;32.70;;;;;;5115640;28;20383;-71
2021/09/07 09:56:29;;;;;;;9.60;5.05;;;24.00;31.10;;;;;;5115559;28;20097;-73
2021/09/07 09:58:55;;;;;;;6.43;5.32;;;24.10;30.20;;;;;;5115586;28;20111;-72
2021/09/07 10:01:21;;;;;;;6.28;5.05;;;24.00;31.90;;;;;;5115547;28;20098;-73
2021/09/07 10:03:48;;;;;;;8.80;6.20;;;24.20;32.00;;;;;;5114713;28;20522;-73
2021/09/07 10:06:17;;;;;;;8.07;5.47;;;24.40;30.70;;;;;;5097390;28;20015;-72
2021/09/07 10:08:43;;;;;;;6.53;4.90;;;24.60;31.10;;;;;;5114930;28;20031;-72
2021/09/07 10:11:15;;;;;;;7.85;5.38;;;24.70;31.40;;;;;;5115392;28;20091;-72
2021/09/07 10:13:44;;;;;;;9.95;5.20;;;24.70;31.00;;;;;;5115450;28;20019;-72
2021/09/07 10:16:13;;;;;;;7.63;5.10;;;24.60;30.60;;;;;;5115083;28;20024;-72
2021/09/07 10:18:53;;;;;;;6.18;5.15;;;24.60;31.30;;;;;;5115007;28;20024;-72
2021/09/07 10:26:39;;;;;;;8.07;4.97;;;24.40;32.90;;;;;;5115139;28;20019;-72
2021/09/07 10:29:09;;;;;;;7.43;5.72;;;24.50;32.70;;;;;;5115077;28;20039;-72
2021/09/07 10:31:47;;;;;;;8.38;5.50;;;24.50;32.70;;;;;;5114981;28;20070;-72
2021/09/07 10:34:17;;;;;;;7.10;5.13;;;24.50;33.30;;;;;;5114620;28;20024;-72
2021/09/07 10:37:07;;;;;;;8.60;5.40;;;24.80;32.80;;;;;;5114601;28;20028;-72
2021/09/07 10:39:42;;;;;;;8.27;5.70;;;25.00;32.80;;;;;;5114609;28;20024;-72
2021/09/07 10:42:13;;;;;;;8.13;5.55;;;25.00;32.50;;;;;;5114982;28;20527;-72
2021/09/07 10:44:40;;;;;;;5.13;4.63;;;25.10;31.70;;;;;;5114765;28;20499;-72
2021/09/07 10:47:07;;;;;;;7.88;5.82;;;25.20;31.20;;;;;;5114774;28;20024;-72
2021/09/07 10:49:33;;;;;;;8.60;5.85;;;25.20;31.00;;;;;;5114730;28;20066;-72
2021/09/07 10:52:12;;;;;;;7.57;4.90;;;25.20;30.90;;;;;;5114433;28;20463;-74
2021/09/07 10:55:04;;;;;;;9.68;5.25;;;25.20;30.80;;;;;;5114669;28;20039;-71
2021/09/07 10:57:34;;;;;;;8.35;5.50;;;25.20;31.60;;;;;;5114780;28;20052;-72
2021/09/07 11:00:03;;;;;;;8.07;5.57;;;25.30;32.50;;;;;;5114352;28;20023;-72
2021/09/07 11:02:35;;;;;;;6.55;5.38;;;25.60;32.10;;;;;;5114147;28;20079;-72
2021/09/07 11:05:05;;;;;;;8.57;5.20;;;26.00;31.50;;;;;;5114371;28;20055;-72
2021/09/07 11:07:41;;;;;;;8.30;5.43;;;26.40;30.70;;;;;;5114404;28;20016;-73
2021/09/07 11:10:26;;;;;;;5.65;4.68;;;26.50;30.10;;;;;;5114335;28;20027;-72
2021/09/07 11:12:54;;;;;;;5.95;5.35;;;26.40;28.60;;;;;;5114205;28;20016;-72
2021/09/07 11:15:32;;;;;;;6.78;5.20;;;26.30;29.10;;;;;;5114417;28;20028;-72
2021/09/07 11:18:01;;;;;;;6.65;5.82;;;26.40;29.50;;;;;;5114108;28;20024;-72
2021/09/07 11:20:33;;;;;;;7.70;4.65;;;26.40;28.10;;;;;;5114266;28;20034;-72
2021/09/07 11:23:11;;;;;;;6.32;4.75;;;26.60;28.70;;;;;;5114095;28;20111;-71
2021/09/07 11:25:38;;;;;;;7.90;4.70;;;26.90;29.10;;;;;;5114165;28;20068;-73
2021/09/07 11:28:05;;;;;;;5.35;4.65;;;27.20;29.30;;;;;;5114003;28;20036;-72
2021/09/07 11:30:51;;;;;;;5.15;4.65;;;27.60;27.60;;;;;;5114019;28;20028;-72
2021/09/07 11:33:22;;;;;;;5.75;4.55;;;27.90;25.60;;;;;;5113843;28;20031;-72
2021/09/07 11:35:53;;;;;;;7.03;5.78;;;28.10;25.00;;;;;;5113991;28;20023;-72
2021/09/07 11:38:29;;;;;;;5.47;4.70;;;28.40;25.70;;;;;;5113903;28;20031;-74
2021/09/07 11:40:55;;;;;;;4.78;3.90;;;28.60;23.70;;;;;;5113812;28;20039;-73
2021/09/07 11:43:34;;;;;;;6.13;5.38;;;28.90;22.20;;;;;;5113771;28;20027;-73
2021/09/07 11:46:26;;;;;;;4.78;4.20;;;29.10;22.00;;;;;;5113622;28;20051;-72
2021/09/07 11:48:55;;;;;;;5.25;4.55;;;29.30;21.90;;;;;;5102476;28;20059;-74
2021/09/07 11:51:28;;;;;;;5.45;4.60;;;29.40;22.10;;;;;;5113576;28;20496;-75
2021/09/07 11:53:57;;;;;;;6.20;4.38;;;29.50;21.70;;;;;;5113570;28;20070;-73
2021/09/07 11:56:26;;;;;;;5.03;4.00;;;29.60;21.00;;;;;;5113559;28;20348;-73
2021/09/07 11:58:51;;;;;;;5.10;4.57;;;29.60;20.00;;;;;;5113725;28;20437;-72
2021/09/07 12:01:23;;;;;;;5.07;4.35;;;29.70;20.00;;;;;;5113392;28;20027;-72
2021/09/07 12:03:51;;;;;;;4.88;4.38;;;29.70;20.10;;;;;;5113364;28;20112;-73
2021/09/07 12:06:37;;;;;;;4.60;4.20;;;29.90;19.70;;;;;;5113461;28;20060;-72
2021/09/07 12:09:14;;;;;;;4.65;4.25;;;29.90;19.80;;;;;;5113280;28;20024;-72
2021/09/07 12:11:41;;;;;;;9.27;4.75;;;29.90;20.00;;;;;;5113292;28;20055;-72
2021/09/07 12:14:11;;;;;;;7.05;4.63;;;30.10;21.30;;;;;;5095068;28;20023;-72
2021/09/07 12:16:48;;;;;;;6.82;4.65;;;30.30;20.40;;;;;;5113139;28;20023;-72
2021/09/07 12:19:29;;;;;;;5.97;4.85;;;30.40;19.30;;;;;;5113284;28;20024;-73
2021/09/07 12:22:20;;;;;;;6.88;4.60;;;30.60;19.20;;;;;;5113224;28;20479;-73
2021/09/07 12:25:14;;;;;;;4.88;4.38;;;30.70;17.80;;;;;;5113147;28;20027;-73
2021/09/07 12:27:44;;;;;;;5.03;4.25;;;30.20;17.20;;;;;;5112960;28;20019;-73
2021/09/07 12:30:25;;;;;;;5.63;3.80;;;30.10;18.50;;;;;;5113005;28;20110;-73
2021/09/07 12:33:01;;;;;;;5.05;4.05;;;30.20;19.30;;;;;;5112764;28;20031;-72
2021/09/07 12:35:39;;;;;;;7.35;4.47;;;30.20;18.50;;;;;;5111442;28;20498;-72
2021/09/07 12:38:04;;;;;;;7.30;4.88;;;30.30;17.70;;;;;;5112868;28;20085;-73
2021/09/07 12:40:31;;;;;;;6.55;4.03;;;30.40;16.90;;;;;;5110851;28;20028;-72
2021/09/07 12:42:56;;;;;;;4.53;3.80;;;30.30;16.00;;;;;;5111958;28;20035;-73
2021/09/07 12:45:26;;;;;;;5.05;4.00;;;30.40;16.00;;;;;;5114116;28;20020;-72